sensor_id;sensor_type;location;lat;lon;timestamp;temperature;humidity
14057;DHT22;7103;54.300;10.180;2024-03-08T00:00:12;2.20;99.90
14057;DHT22;7103;54.300;10.180;2024-03-08T00:02:42;2.10;99.90
14057;DHT22;7103;54.300;10.180;2024-03-08T00:05:10;2.10;99.90
14057;DHT22;7103;54.300;10.180;2024-03-08T00:07:38;2.10;99.90
14057;DHT22;7103;54.300;10.180;2024-03-08T00:10:08;2.20;99.90
14057;DHT22;7103;54.300;10.180;2024-03-08T00:12:43;2.10;99.90
14057;DHT22;7103;54.300;10.180;2024-03-08T00:15:11;2.10;99.90
14057;DHT22;7103;54.300;10.180;2024-03-08T00:17:43;2.10;99.90
14057;DHT22;7103;54.300;10.180;2024-03-08T00:20:10;2.00;99.90
14057;DHT22;7103;54.300;10.180;2024-03-08T00:22:38;2.00;99.90
14057;DHT22;7103;54.300;10.180;2024-03-08T00:25:06;2.00;99.90
14057;DHT22;7103;54.300;10.180;2024-03-08T00:27:36;2.00;99.90
14057;DHT22;7103;54.300;10.180;2024-03-08T00:30:04;2.00;99.90
14057;DHT22;7103;54.300;10.180;2024-03-08T00:32:32;1.90;99.90
14057;DHT22;7103;54.300;10.180;2024-03-08T00:34:59;1.90;99.90
14057;DHT22;7103;54.300;10.180;2024-03-08T00:37:26;1.90;99.90
14057;DHT22;7103;54.300;10.180;2024-03-08T00:39:53;1.90;99.90
14057;DHT22;7103;54.300;10.180;2024-03-08T00:42:20;2.10;99.90
14057;DHT22;7103;54.300;10.180;2024-03-08T00:44:48;2.00;99.90
14057;DHT22;7103;54.300;10.180;2024-03-08T00:47:18;2.10;99.90
14057;DHT22;7103;54.300;10.180;2024-03-08T00:49:46;2.10;99.90
14057;DHT22;7103;54.300;10.180;2024-03-08T00:52:13;2.10;99.90
14057;DHT22;7103;54.300;10.180;2024-03-08T00:54:40;2.20;99.90
14057;DHT22;7103;54.300;10.180;2024-03-08T00:57:09;2.10;99.90
14057;DHT22;7103;54.300;10.180;2024-03-08T00:59:38;2.10;99.90
14057;DHT22;7103;54.300;10.180;2024-03-08T01:02:05;2.10;99.90
14057;DHT22;7103;54.300;10.180;2024-03-08T01:04:32;2.20;99.90
14057;DHT22;7103;54.300;10.180;2024-03-08T01:07:00;2.20;99.90
14057;DHT22;7103;54.300;10.180;2024-03-08T01:09:27;2.20;99.90
14057;DHT22;7103;54.300;10.180;2024-03-08T01:11:55;2.20;99.90
14057;DHT22;7103;54.300;10.180;2024-03-08T01:14:23;2.00;99.90
14057;DHT22;7103;54.300;10.180;2024-03-08T01:16:50;2.10;99.90
14057;DHT22;7103;54.300;10.180;2024-03-08T01:19:17;2.10;99.90
14057;DHT22;7103;54.300;10.180;2024-03-08T01:21:44;2.10;99.90
14057;DHT22;7103;54.300;10.180;2024-03-08T01:24:11;2.10;99.90
14057;DHT22;7103;54.300;10.180;2024-03-08T01:26:38;2.10;99.90
14057;DHT22;7103;54.300;10.180;2024-03-08T01:29:05;2.20;99.90
14057;DHT22;7103;54.300;10.180;2024-03-08T01:31:32;2.00;99.90
14057;DHT22;7103;54.300;10.180;2024-03-08T01:33:59;2.00;99.90
14057;DHT22;7103;54.300;10.180;2024-03-08T01:36:26;1.80;99.90
14057;DHT22;7103;54.300;10.180;2024-03-08T01:38:53;1.80;99.90
14057;DHT22;7103;54.300;10.180;2024-03-08T01:41:20;1.80;99.90
14057;DHT22;7103;54.300;10.180;2024-03-08T01:43:48;1.80;99.90
14057;DHT22;7103;54.300;10.180;2024-03-08T01:46:19;1.70;99.90
14057;DHT22;7103;54.300;10.180;2024-03-08T01:48:48;1.70;99.90
14057;DHT22;7103;54.300;10.180;2024-03-08T01:51:18;1.70;99.90
14057;DHT22;7103;54.300;10.180;2024-03-08T01:53:46;1.70;99.90
14057;DHT22;7103;54.300;10.180;2024-03-08T01:56:15;1.70;99.90
14057;DHT22;7103;54.300;10.180;2024-03-08T01:58:42;1.50;99.90
14057;DHT22;7103;54.300;10.180;2024-03-08T02:01:12;1.50;99.90
14057;DHT22;7103;54.300;10.180;2024-03-08T02:03:42;1.50;99.90
14057;DHT22;7103;54.300;10.180;2024-03-08T02:06:14;1.40;99.90
14057;DHT22;7103;54.300;10.180;2024-03-08T02:08:43;1.30;99.90
14057;DHT22;7103;54.300;10.180;2024-03-08T02:11:11;1.30;99.90
14057;DHT22;7103;54.300;10.180;2024-03-08T02:13:38;1.30;99.90
14057;DHT22;7103;54.300;10.180;2024-03-08T02:16:06;1.30;99.90
14057;DHT22;7103;54.300;10.180;2024-03-08T02:18:35;1.20;99.90
14057;DHT22;7103;54.300;10.180;2024-03-08T02:21:03;1.20;99.90
14057;DHT22;7103;54.300;10.180;2024-03-08T02:23:32;1.20;99.90
14057;DHT22;7103;54.300;10.180;2024-03-08T02:25:59;1.30;99.90
14057;DHT22;7103;54.300;10.180;2024-03-08T02:28:27;1.20;99.90
14057;DHT22;7103;54.300;10.180;2024-03-08T02:30:54;1.20;99.90
14057;DHT22;7103;54.300;10.180;2024-03-08T02:33:23;1.20;99.90
14057;DHT22;7103;54.300;10.180;2024-03-08T02:35:50;1.30;99.90
14057;DHT22;7103;54.300;10.180;2024-03-08T02:38:19;1.30;99.90
14057;DHT22;7103;54.300;10.180;2024-03-08T02:40:47;1.30;1.00
14057;DHT22;7103;54.300;10.180;2024-03-08T02:43:15;1.30;1.00
14057;DHT22;7103;54.300;10.180;2024-03-08T02:45:43;1.40;1.00
14057;DHT22;7103;54.300;10.180;2024-03-08T02:48:14;1.30;1.00
14057;DHT22;7103;54.300;10.180;2024-03-08T02:50:41;1.30;1.00
14057;DHT22;7103;54.300;10.180;2024-03-08T02:53:13;1.30;1.00
14057;DHT22;7103;54.300;10.180;2024-03-08T02:55:41;1.40;1.00
14057;DHT22;7103;54.300;10.180;2024-03-08T02:58:09;1.40;1.00
14057;DHT22;7103;54.300;10.180;2024-03-08T03:00:38;1.40;1.00
14057;DHT22;7103;54.300;10.180;2024-03-08T03:03:08;1.40;1.00
14057;DHT22;7103;54.300;10.180;2024-03-08T03:05:35;1.50;1.00
14057;DHT22;7103;54.300;10.180;2024-03-08T03:08:03;1.50;1.00
14057;DHT22;7103;54.300;10.180;2024-03-08T03:10:35;1.60;1.00
14057;DHT22;7103;54.300;10.180;2024-03-08T03:13:02;1.70;1.00
14057;DHT22;7103;54.300;10.180;2024-03-08T03:15:31;1.90;1.00
14057;DHT22;7103;54.300;10.180;2024-03-08T03:17:58;1.90;1.00
14057;DHT22;7103;54.300;10.180;2024-03-08T03:20:25;2.00;1.00
14057;DHT22;7103;54.300;10.180;2024-03-08T03:23:00;2.00;1.00
14057;DHT22;7103;54.300;10.180;2024-03-08T03:25:30;2.00;1.00
14057;DHT22;7103;54.300;10.180;2024-03-08T03:28:02;1.90;1.00
14057;DHT22;7103;54.300;10.180;2024-03-08T03:30:29;1.90;1.00
14057;DHT22;7103;54.300;10.180;2024-03-08T03:33:03;2.00;1.00
14057;DHT22;7103;54.300;10.180;2024-03-08T03:35:36;2.10;1.00
14057;DHT22;7103;54.300;10.180;2024-03-08T03:38:04;2.10;1.00
14057;DHT22;7103;54.300;10.180;2024-03-08T03:40:38;2.20;1.00
14057;DHT22;7103;54.300;10.180;2024-03-08T03:43:05;2.10;1.00
14057;DHT22;7103;54.300;10.180;2024-03-08T03:45:32;2.20;1.00
14057;DHT22;7103;54.300;10.180;2024-03-08T03:48:04;2.20;1.00
14057;DHT22;7103;54.300;10.180;2024-03-08T03:50:34;2.30;1.00
14057;DHT22;7103;54.300;10.180;2024-03-08T03:53:03;2.30;1.00
14057;DHT22;7103;54.300;10.180;2024-03-08T03:55:30;2.30;1.00
14057;DHT22;7103;54.300;10.180;2024-03-08T03:57:57;2.40;1.00
14057;DHT22;7103;54.300;10.180;2024-03-08T04:00:26;2.30;1.00
14057;DHT22;7103;54.300;10.180;2024-03-08T04:02:54;2.40;1.00
14057;DHT22;7103;54.300;10.180;2024-03-08T04:05:25;2.40;1.00
14057;DHT22;7103;54.300;10.180;2024-03-08T04:07:52;2.50;1.00
14057;DHT22;7103;54.300;10.180;2024-03-08T04:10:19;2.40;1.00
14057;DHT22;7103;54.300;10.180;2024-03-08T04:12:46;2.50;1.00
14057;DHT22;7103;54.300;10.180;2024-03-08T04:15:14;2.50;1.00
14057;DHT22;7103;54.300;10.180;2024-03-08T04:17:42;2.50;1.00
14057;DHT22;7103;54.300;10.180;2024-03-08T04:20:09;2.60;1.00
14057;DHT22;7103;54.300;10.180;2024-03-08T04:22:38;2.60;1.00
14057;DHT22;7103;54.300;10.180;2024-03-08T04:25:07;2.50;1.00
14057;DHT22;7103;54.300;10.180;2024-03-08T04:27:34;2.50;1.00
14057;DHT22;7103;54.300;10.180;2024-03-08T04:30:05;2.40;1.00
14057;DHT22;7103;54.300;10.180;2024-03-08T04:32:35;2.60;1.00
14057;DHT22;7103;54.300;10.180;2024-03-08T04:35:02;2.60;1.00
14057;DHT22;7103;54.300;10.180;2024-03-08T04:37:30;2.60;1.00
14057;DHT22;7103;54.300;10.180;2024-03-08T04:39:57;2.70;1.00
14057;DHT22;7103;54.300;10.180;2024-03-08T04:42:25;2.60;1.00
14057;DHT22;7103;54.300;10.180;2024-03-08T04:44:52;2.60;1.00
14057;DHT22;7103;54.300;10.180;2024-03-08T04:47:20;2.60;1.00
14057;DHT22;7103;54.300;10.180;2024-03-08T04:49:47;2.60;1.00
14057;DHT22;7103;54.300;10.180;2024-03-08T04:52:14;2.50;1.00
14057;DHT22;7103;54.300;10.180;2024-03-08T04:54:41;2.60;1.00
14057;DHT22;7103;54.300;10.180;2024-03-08T04:57:08;2.60;1.00
14057;DHT22;7103;54.300;10.180;2024-03-08T04:59:35;2.60;1.00
14057;DHT22;7103;54.300;10.180;2024-03-08T05:02:03;2.60;1.00
14057;DHT22;7103;54.300;10.180;2024-03-08T05:04:31;2.60;1.00
14057;DHT22;7103;54.300;10.180;2024-03-08T05:06:58;2.60;1.00
14057;DHT22;7103;54.300;10.180;2024-03-08T05:09:27;2.60;1.00
14057;DHT22;7103;54.300;10.180;2024-03-08T05:11:55;2.50;1.00
14057;DHT22;7103;54.300;10.180;2024-03-08T05:14:25;2.60;1.00
14057;DHT22;7103;54.300;10.180;2024-03-08T05:16:52;2.60;1.00
14057;DHT22;7103;54.300;10.180;2024-03-08T05:19:20;2.60;1.00
14057;DHT22;7103;54.300;10.180;2024-03-08T05:21:48;2.60;1.00
14057;DHT22;7103;54.300;10.180;2024-03-08T05:24:16;2.60;1.00
14057;DHT22;7103;54.300;10.180;2024-03-08T05:26:45;2.70;1.00
14057;DHT22;7103;54.300;10.180;2024-03-08T05:29:13;2.70;1.00
14057;DHT22;7103;54.300;10.180;2024-03-08T05:31:48;2.70;1.00
14057;DHT22;7103;54.300;10.180;2024-03-08T05:34:16;2.70;1.00
14057;DHT22;7103;54.300;10.180;2024-03-08T05:36:43;2.70;1.00
14057;DHT22;7103;54.300;10.180;2024-03-08T05:39:15;2.80;1.00
14057;DHT22;7103;54.300;10.180;2024-03-08T05:41:43;2.90;1.00
14057;DHT22;7103;54.300;10.180;2024-03-08T05:44:11;2.80;1.00
14057;DHT22;7103;54.300;10.180;2024-03-08T05:46:38;2.80;1.00
14057;DHT22;7103;54.300;10.180;2024-03-08T05:49:06;2.90;1.00
14057;DHT22;7103;54.300;10.180;2024-03-08T05:51:35;2.80;1.00
14057;DHT22;7103;54.300;10.180;2024-03-08T05:54:03;3.00;1.00
14057;DHT22;7103;54.300;10.180;2024-03-08T05:56:33;2.90;1.00
14057;DHT22;7103;54.300;10.180;2024-03-08T05:59:00;2.90;1.00
14057;DHT22;7103;54.300;10.180;2024-03-08T06:01:28;2.90;1.00
14057;DHT22;7103;54.300;10.180;2024-03-08T06:03:56;2.90;1.00
14057;DHT22;7103;54.300;10.180;2024-03-08T06:06:24;2.90;1.00
14057;DHT22;7103;54.300;10.180;2024-03-08T06:08:51;2.90;1.00
14057;DHT22;7103;54.300;10.180;2024-03-08T06:11:20;3.00;1.00
14057;DHT22;7103;54.300;10.180;2024-03-08T06:13:48;2.90;1.00
14057;DHT22;7103;54.300;10.180;2024-03-08T06:16:17;3.00;1.00
14057;DHT22;7103;54.300;10.180;2024-03-08T06:18:44;2.90;1.00
14057;DHT22;7103;54.300;10.180;2024-03-08T06:21:13;2.90;1.00
14057;DHT22;7103;54.300;10.180;2024-03-08T06:23:40;3.00;1.00
14057;DHT22;7103;54.300;10.180;2024-03-08T06:26:07;3.00;1.00
14057;DHT22;7103;54.300;10.180;2024-03-08T06:28:34;3.10;1.00
14057;DHT22;7103;54.300;10.180;2024-03-08T06:31:02;3.00;1.00
14057;DHT22;7103;54.300;10.180;2024-03-08T06:33:29;3.10;1.00
14057;DHT22;7103;54.300;10.180;2024-03-08T06:35:59;3.20;1.00
14057;DHT22;7103;54.300;10.180;2024-03-08T06:38:26;3.20;1.00
14057;DHT22;7103;54.300;10.180;2024-03-08T06:40:53;3.20;1.00
14057;DHT22;7103;54.300;10.180;2024-03-08T06:43:21;3.30;1.00
14057;DHT22;7103;54.300;10.180;2024-03-08T06:45:48;3.20;1.00
14057;DHT22;7103;54.300;10.180;2024-03-08T06:48:19;3.10;1.00
14057;DHT22;7103;54.300;10.180;2024-03-08T06:50:47;3.10;1.00
14057;DHT22;7103;54.300;10.180;2024-03-08T06:53:14;3.10;1.00
14057;DHT22;7103;54.300;10.180;2024-03-08T06:55:45;3.10;1.00
14057;DHT22;7103;54.300;10.180;2024-03-08T06:58:11;3.20;1.00
14057;DHT22;7103;54.300;10.180;2024-03-08T07:00:38;3.10;1.00
14057;DHT22;7103;54.300;10.180;2024-03-08T07:03:08;3.10;1.00
14057;DHT22;7103;54.300;10.180;2024-03-08T07:05:39;3.20;1.00
14057;DHT22;7103;54.300;10.180;2024-03-08T07:08:07;3.30;1.00
14057;DHT22;7103;54.300;10.180;2024-03-08T07:10:34;3.40;1.00
14057;DHT22;7103;54.300;10.180;2024-03-08T07:13:11;3.40;1.00
14057;DHT22;7103;54.300;10.180;2024-03-08T07:15:45;3.50;1.00
14057;DHT22;7103;54.300;10.180;2024-03-08T07:18:12;3.30;1.00
14057;DHT22;7103;54.300;10.180;2024-03-08T07:20:41;3.20;1.00
14057;DHT22;7103;54.300;10.180;2024-03-08T07:23:10;3.20;1.00
14057;DHT22;7103;54.300;10.180;2024-03-08T07:25:37;3.30;1.00
14057;DHT22;7103;54.300;10.180;2024-03-08T07:28:06;3.20;1.00
14057;DHT22;7103;54.300;10.180;2024-03-08T07:30:38;3.20;1.00
14057;DHT22;7103;54.300;10.180;2024-03-08T07:33:12;3.30;1.00
14057;DHT22;7103;54.300;10.180;2024-03-08T07:35:40;3.40;1.00
14057;DHT22;7103;54.300;10.180;2024-03-08T07:38:07;3.50;1.00
14057;DHT22;7103;54.300;10.180;2024-03-08T07:40:37;3.40;1.00
14057;DHT22;7103;54.300;10.180;2024-03-08T07:43:08;3.50;1.00
14057;DHT22;7103;54.300;10.180;2024-03-08T07:45:35;3.50;1.00
14057;DHT22;7103;54.300;10.180;2024-03-08T07:48:03;3.70;1.00
14057;DHT22;7103;54.300;10.180;2024-03-08T07:50:31;3.50;1.00
14057;DHT22;7103;54.300;10.180;2024-03-08T07:53:00;3.50;1.00
14057;DHT22;7103;54.300;10.180;2024-03-08T07:55:28;3.50;1.00
14057;DHT22;7103;54.300;10.180;2024-03-08T07:57:55;3.70;1.00
14057;DHT22;7103;54.300;10.180;2024-03-08T08:00:22;3.80;1.00
14057;DHT22;7103;54.300;10.180;2024-03-08T08:02:51;3.90;1.00
14057;DHT22;7103;54.300;10.180;2024-03-08T08:05:17;4.30;1.00
14057;DHT22;7103;54.300;10.180;2024-03-08T08:07:45;4.50;1.00
14057;DHT22;7103;54.300;10.180;2024-03-08T08:10:16;4.80;1.00
14057;DHT22;7103;54.300;10.180;2024-03-08T08:12:49;4.90;99.90
14057;DHT22;7103;54.300;10.180;2024-03-08T08:15:16;5.10;99.90
14057;DHT22;7103;54.300;10.180;2024-03-08T08:17:46;5.60;99.90
14057;DHT22;7103;54.300;10.180;2024-03-08T08:20:14;6.20;99.90
14057;DHT22;7103;54.300;10.180;2024-03-08T08:22:42;6.20;99.90
14057;DHT22;7103;54.300;10.180;2024-03-08T08:25:12;6.00;99.90
14057;DHT22;7103;54.300;10.180;2024-03-08T08:27:40;5.40;99.90
14057;DHT22;7103;54.300;10.180;2024-03-08T08:30:09;5.10;99.90
14057;DHT22;7103;54.300;10.180;2024-03-08T08:32:38;4.70;99.90
14057;DHT22;7103;54.300;10.180;2024-03-08T08:35:11;4.70;99.90
14057;DHT22;7103;54.300;10.180;2024-03-08T08:37:39;4.70;99.90
14057;DHT22;7103;54.300;10.180;2024-03-08T08:40:07;4.70;99.90
14057;DHT22;7103;54.300;10.180;2024-03-08T08:42:42;5.10;99.90
14057;DHT22;7103;54.300;10.180;2024-03-08T08:45:09;5.70;99.90
14057;DHT22;7103;54.300;10.180;2024-03-08T08:47:43;5.90;99.90
14057;DHT22;7103;54.300;10.180;2024-03-08T08:50:12;6.00;99.90
14057;DHT22;7103;54.300;10.180;2024-03-08T08:52:39;6.30;99.90
14057;DHT22;7103;54.300;10.180;2024-03-08T08:55:07;6.50;75.80
14057;DHT22;7103;54.300;10.180;2024-03-08T08:57:34;6.40;19.60
14057;DHT22;7103;54.300;10.180;2024-03-08T09:00:03;6.10;1.00
14057;DHT22;7103;54.300;10.180;2024-03-08T09:02:42;6.10;1.00
14057;DHT22;7103;54.300;10.180;2024-03-08T09:05:10;6.20;1.00
14057;DHT22;7103;54.300;10.180;2024-03-08T09:07:38;6.60;1.00
14057;DHT22;7103;54.300;10.180;2024-03-08T09:10:05;7.10;1.00
14057;DHT22;7103;54.300;10.180;2024-03-08T09:12:35;7.40;1.00
14057;DHT22;7103;54.300;10.180;2024-03-08T09:15:02;7.70;1.00
14057;DHT22;7103;54.300;10.180;2024-03-08T09:17:29;8.10;1.00
14057;DHT22;7103;54.300;10.180;2024-03-08T09:19:56;8.60;1.00
14057;DHT22;7103;54.300;10.180;2024-03-08T09:22:24;8.40;1.00
14057;DHT22;7103;54.300;10.180;2024-03-08T09:24:52;8.90;1.00
14057;DHT22;7103;54.300;10.180;2024-03-08T09:27:18;9.00;1.00
14057;DHT22;7103;54.300;10.180;2024-03-08T09:29:46;9.40;1.00
14057;DHT22;7103;54.300;10.180;2024-03-08T09:32:13;9.40;1.00
14057;DHT22;7103;54.300;10.180;2024-03-08T09:34:40;9.20;1.00
14057;DHT22;7103;54.300;10.180;2024-03-08T09:37:07;8.70;1.00
14057;DHT22;7103;54.300;10.180;2024-03-08T09:39:35;8.80;1.00
14057;DHT22;7103;54.300;10.180;2024-03-08T09:42:02;9.00;1.00
14057;DHT22;7103;54.300;10.180;2024-03-08T09:44:30;9.20;1.00
14057;DHT22;7103;54.300;10.180;2024-03-08T09:46:58;9.30;1.00
14057;DHT22;7103;54.300;10.180;2024-03-08T09:49:26;9.20;1.00
14057;DHT22;7103;54.300;10.180;2024-03-08T09:51:53;9.60;1.00
14057;DHT22;7103;54.300;10.180;2024-03-08T09:54:20;9.30;1.00
14057;DHT22;7103;54.300;10.180;2024-03-08T09:56:51;9.10;1.00
14057;DHT22;7103;54.300;10.180;2024-03-08T09:59:19;9.10;1.00
14057;DHT22;7103;54.300;10.180;2024-03-08T10:01:55;9.70;1.00
14057;DHT22;7103;54.300;10.180;2024-03-08T10:04:23;10.40;1.00
14057;DHT22;7103;54.300;10.180;2024-03-08T10:06:50;10.40;1.00
14057;DHT22;7103;54.300;10.180;2024-03-08T10:09:17;10.20;1.00
14057;DHT22;7103;54.300;10.180;2024-03-08T10:11:45;10.50;1.00
14057;DHT22;7103;54.300;10.180;2024-03-08T10:14:12;10.70;1.00
14057;DHT22;7103;54.300;10.180;2024-03-08T10:16:39;10.10;1.00
14057;DHT22;7103;54.300;10.180;2024-03-08T10:19:07;9.90;1.00
14057;DHT22;7103;54.300;10.180;2024-03-08T10:21:34;10.10;1.00
14057;DHT22;7103;54.300;10.180;2024-03-08T10:24:02;10.10;1.00
14057;DHT22;7103;54.300;10.180;2024-03-08T10:26:30;10.50;1.00
14057;DHT22;7103;54.300;10.180;2024-03-08T10:28:57;9.90;1.00
14057;DHT22;7103;54.300;10.180;2024-03-08T10:31:25;9.70;1.00
14057;DHT22;7103;54.300;10.180;2024-03-08T10:33:52;10.10;1.00
14057;DHT22;7103;54.300;10.180;2024-03-08T10:36:19;10.20;1.00
14057;DHT22;7103;54.300;10.180;2024-03-08T10:38:46;10.50;1.00
14057;DHT22;7103;54.300;10.180;2024-03-08T10:41:15;10.60;1.00
14057;DHT22;7103;54.300;10.180;2024-03-08T10:49:32;9.30;1.00
14057;DHT22;7103;54.300;10.180;2024-03-08T10:54:33;9.30;1.00
14057;DHT22;7103;54.300;10.180;2024-03-08T10:57:03;9.50;1.00
14057;DHT22;7103;54.300;10.180;2024-03-08T10:59:32;9.80;1.00
14057;DHT22;7103;54.300;10.180;2024-03-08T11:02:00;9.70;1.00
14057;DHT22;7103;54.300;10.180;2024-03-08T11:04:28;9.80;1.00
14057;DHT22;7103;54.300;10.180;2024-03-08T11:07:02;9.60;1.00
14057;DHT22;7103;54.300;10.180;2024-03-08T11:09:37;9.90;1.00
14057;DHT22;7103;54.300;10.180;2024-03-08T11:12:21;10.10;1.00
14057;DHT22;7103;54.300;10.180;2024-03-08T11:14:49;10.20;1.00
14057;DHT22;7103;54.300;10.180;2024-03-08T11:17:21;10.20;1.00
14057;DHT22;7103;54.300;10.180;2024-03-08T11:19:55;10.60;1.00
14057;DHT22;7103;54.300;10.180;2024-03-08T11:22:31;11.00;1.00
14057;DHT22;7103;54.300;10.180;2024-03-08T11:25:03;11.30;1.00
14057;DHT22;7103;54.300;10.180;2024-03-08T11:27:37;11.00;1.00
14057;DHT22;7103;54.300;10.180;2024-03-08T11:30:06;10.70;1.00
14057;DHT22;7103;54.300;10.180;2024-03-08T11:32:46;11.00;1.00
14057;DHT22;7103;54.300;10.180;2024-03-08T11:35:21;10.70;1.00
14057;DHT22;7103;54.300;10.180;2024-03-08T11:37:49;10.20;1.00
14057;DHT22;7103;54.300;10.180;2024-03-08T11:40:17;10.00;1.00
14057;DHT22;7103;54.300;10.180;2024-03-08T11:42:47;9.90;1.00
14057;DHT22;7103;54.300;10.180;2024-03-08T11:45:16;9.60;1.00
14057;DHT22;7103;54.300;10.180;2024-03-08T11:47:45;9.80;1.00
14057;DHT22;7103;54.300;10.180;2024-03-08T11:50:19;10.10;1.00
14057;DHT22;7103;54.300;10.180;2024-03-08T11:52:50;9.80;1.00
14057;DHT22;7103;54.300;10.180;2024-03-08T11:55:17;10.10;1.00
14057;DHT22;7103;54.300;10.180;2024-03-08T11:57:47;9.80;1.00
14057;DHT22;7103;54.300;10.180;2024-03-08T12:00:16;9.70;1.00
14057;DHT22;7103;54.300;10.180;2024-03-08T12:03:02;9.30;1.00
14057;DHT22;7103;54.300;10.180;2024-03-08T12:05:29;9.50;1.00
14057;DHT22;7103;54.300;10.180;2024-03-08T12:07:58;9.60;1.00
14057;DHT22;7103;54.300;10.180;2024-03-08T12:10:26;9.20;1.00
14057;DHT22;7103;54.300;10.180;2024-03-08T12:12:57;9.10;1.00
14057;DHT22;7103;54.300;10.180;2024-03-08T12:15:26;9.30;1.00
14057;DHT22;7103;54.300;10.180;2024-03-08T12:17:55;9.50;1.00
14057;DHT22;7103;54.300;10.180;2024-03-08T12:20:27;9.40;1.00
14057;DHT22;7103;54.300;10.180;2024-03-08T12:22:58;9.30;1.00
14057;DHT22;7103;54.300;10.180;2024-03-08T12:25:33;9.30;1.00
14057;DHT22;7103;54.300;10.180;2024-03-08T12:28:10;9.60;1.00
14057;DHT22;7103;54.300;10.180;2024-03-08T12:31:03;9.50;1.00
14057;DHT22;7103;54.300;10.180;2024-03-08T12:33:32;9.40;1.00
14057;DHT22;7103;54.300;10.180;2024-03-08T12:35:58;9.40;1.00
14057;DHT22;7103;54.300;10.180;2024-03-08T12:38:28;9.20;1.00
14057;DHT22;7103;54.300;10.180;2024-03-08T12:40:57;9.00;1.00
14057;DHT22;7103;54.300;10.180;2024-03-08T12:43:25;9.30;1.00
14057;DHT22;7103;54.300;10.180;2024-03-08T12:45:52;9.50;1.00
14057;DHT22;7103;54.300;10.180;2024-03-08T12:48:19;9.30;1.00
14057;DHT22;7103;54.300;10.180;2024-03-08T12:50:47;9.10;1.00
14057;DHT22;7103;54.300;10.180;2024-03-08T12:53:15;9.10;1.00
14057;DHT22;7103;54.300;10.180;2024-03-08T12:55:42;9.10;1.00
14057;DHT22;7103;54.300;10.180;2024-03-08T12:58:09;8.80;1.00
14057;DHT22;7103;54.300;10.180;2024-03-08T13:00:36;8.80;1.00
14057;DHT22;7103;54.300;10.180;2024-03-08T13:03:03;8.70;1.00
14057;DHT22;7103;54.300;10.180;2024-03-08T13:05:30;8.70;1.00
14057;DHT22;7103;54.300;10.180;2024-03-08T13:07:57;8.90;1.00
14057;DHT22;7103;54.300;10.180;2024-03-08T13:10:24;8.80;1.00
14057;DHT22;7103;54.300;10.180;2024-03-08T13:12:51;8.50;1.00
14057;DHT22;7103;54.300;10.180;2024-03-08T13:15:20;8.20;1.00
14057;DHT22;7103;54.300;10.180;2024-03-08T13:17:48;8.40;1.00
14057;DHT22;7103;54.300;10.180;2024-03-08T13:20:15;8.60;1.00
14057;DHT22;7103;54.300;10.180;2024-03-08T13:22:56;8.60;1.00
14057;DHT22;7103;54.300;10.180;2024-03-08T13:25:26;8.50;1.00
14057;DHT22;7103;54.300;10.180;2024-03-08T13:27:52;8.20;1.00
14057;DHT22;7103;54.300;10.180;2024-03-08T13:30:22;8.20;1.00
14057;DHT22;7103;54.300;10.180;2024-03-08T13:32:52;8.50;1.00
14057;DHT22;7103;54.300;10.180;2024-03-08T13:35:19;8.40;1.00
14057;DHT22;7103;54.300;10.180;2024-03-08T13:37:51;8.40;1.00
14057;DHT22;7103;54.300;10.180;2024-03-08T13:40:18;8.10;1.00
14057;DHT22;7103;54.300;10.180;2024-03-08T13:42:47;7.80;1.00
14057;DHT22;7103;54.300;10.180;2024-03-08T13:45:16;8.30;1.00
14057;DHT22;7103;54.300;10.180;2024-03-08T13:47:53;8.40;1.00
14057;DHT22;7103;54.300;10.180;2024-03-08T13:50:21;8.40;1.00
14057;DHT22;7103;54.300;10.180;2024-03-08T13:52:50;8.10;1.00
14057;DHT22;7103;54.300;10.180;2024-03-08T13:55:23;7.70;1.00
14057;DHT22;7103;54.300;10.180;2024-03-08T13:57:50;7.80;1.00
14057;DHT22;7103;54.300;10.180;2024-03-08T14:00:20;7.40;1.00
14057;DHT22;7103;54.300;10.180;2024-03-08T14:02:52;7.40;1.00
14057;DHT22;7103;54.300;10.180;2024-03-08T14:05:20;7.50;1.00
14057;DHT22;7103;54.300;10.180;2024-03-08T14:07:48;7.70;1.00
14057;DHT22;7103;54.300;10.180;2024-03-08T14:10:17;7.80;1.00
14057;DHT22;7103;54.300;10.180;2024-03-08T14:12:48;7.80;1.00
14057;DHT22;7103;54.300;10.180;2024-03-08T14:15:17;7.70;1.00
14057;DHT22;7103;54.300;10.180;2024-03-08T14:17:44;7.60;1.00
14057;DHT22;7103;54.300;10.180;2024-03-08T14:20:14;7.60;1.00
14057;DHT22;7103;54.300;10.180;2024-03-08T14:22:41;7.60;1.00
14057;DHT22;7103;54.300;10.180;2024-03-08T14:25:08;7.60;1.00
14057;DHT22;7103;54.300;10.180;2024-03-08T14:27:44;7.50;1.00
14057;DHT22;7103;54.300;10.180;2024-03-08T14:30:12;7.40;1.00
14057;DHT22;7103;54.300;10.180;2024-03-08T14:32:40;7.10;1.00
14057;DHT22;7103;54.300;10.180;2024-03-08T14:35:08;7.10;1.00
14057;DHT22;7103;54.300;10.180;2024-03-08T14:37:41;6.90;1.00
14057;DHT22;7103;54.300;10.180;2024-03-08T14:40:32;6.70;1.00
14057;DHT22;7103;54.300;10.180;2024-03-08T14:42:59;6.70;1.00
14057;DHT22;7103;54.300;10.180;2024-03-08T14:45:28;6.80;1.00
14057;DHT22;7103;54.300;10.180;2024-03-08T14:47:55;6.80;1.00
14057;DHT22;7103;54.300;10.180;2024-03-08T14:50:24;6.70;1.00
14057;DHT22;7103;54.300;10.180;2024-03-08T14:52:54;6.70;1.00
14057;DHT22;7103;54.300;10.180;2024-03-08T14:55:21;6.40;1.00
14057;DHT22;7103;54.300;10.180;2024-03-08T14:57:52;6.40;1.00
14057;DHT22;7103;54.300;10.180;2024-03-08T15:00:20;6.20;1.00
14057;DHT22;7103;54.300;10.180;2024-03-08T15:02:54;6.20;1.00
14057;DHT22;7103;54.300;10.180;2024-03-08T15:05:21;6.20;1.00
14057;DHT22;7103;54.300;10.180;2024-03-08T15:07:54;6.20;1.00
14057;DHT22;7103;54.300;10.180;2024-03-08T15:10:21;6.20;1.00
14057;DHT22;7103;54.300;10.180;2024-03-08T15:12:52;6.20;1.00
14057;DHT22;7103;54.300;10.180;2024-03-08T15:15:22;6.20;1.00
14057;DHT22;7103;54.300;10.180;2024-03-08T15:17:51;6.10;1.00
14057;DHT22;7103;54.300;10.180;2024-03-08T15:20:21;6.00;1.00
14057;DHT22;7103;54.300;10.180;2024-03-08T15:22:56;5.80;1.00
14057;DHT22;7103;54.300;10.180;2024-03-08T15:25:25;5.80;1.00
14057;DHT22;7103;54.300;10.180;2024-03-08T15:27:53;5.60;1.00
14057;DHT22;7103;54.300;10.180;2024-03-08T15:30:21;5.70;1.00
14057;DHT22;7103;54.300;10.180;2024-03-08T15:32:53;5.50;1.00
14057;DHT22;7103;54.300;10.180;2024-03-08T15:35:24;5.50;1.00
14057;DHT22;7103;54.300;10.180;2024-03-08T15:37:53;5.50;1.00
14057;DHT22;7103;54.300;10.180;2024-03-08T15:40:22;5.30;1.00
14057;DHT22;7103;54.300;10.180;2024-03-08T15:42:55;5.30;1.00
14057;DHT22;7103;54.300;10.180;2024-03-08T15:45:23;5.30;1.00
14057;DHT22;7103;54.300;10.180;2024-03-08T15:47:53;5.20;1.00
14057;DHT22;7103;54.300;10.180;2024-03-08T15:50:20;5.40;1.00
14057;DHT22;7103;54.300;10.180;2024-03-08T15:52:50;5.30;1.00
14057;DHT22;7103;54.300;10.180;2024-03-08T15:55:22;5.20;1.00
14057;DHT22;7103;54.300;10.180;2024-03-08T15:57:51;5.30;1.00
14057;DHT22;7103;54.300;10.180;2024-03-08T16:00:19;5.20;1.00
14057;DHT22;7103;54.300;10.180;2024-03-08T16:03:13;5.20;1.00
14057;DHT22;7103;54.300;10.180;2024-03-08T16:05:42;5.10;1.00
14057;DHT22;7103;54.300;10.180;2024-03-08T16:08:14;5.10;1.00
14057;DHT22;7103;54.300;10.180;2024-03-08T16:10:49;5.00;1.00
14057;DHT22;7103;54.300;10.180;2024-03-08T16:13:21;5.10;1.00
14057;DHT22;7103;54.300;10.180;2024-03-08T16:15:51;5.10;1.00